createdAt,value
2022-11-15T00:00:01.429Z,17.47
2022-11-15T00:02:30.018Z,17.48
2022-11-15T00:04:57.187Z,17.51
2022-11-15T00:07:53.526Z,17.54
2022-11-15T00:10:11.646Z,17.53
2022-11-15T00:12:39.187Z,17.56
2022-11-15T00:15:07.927Z,17.82
2022-11-15T00:17:36.388Z,17.70
2022-11-15T00:20:03.925Z,17.70
2022-11-15T00:22:33.207Z,17.64
2022-11-15T00:25:00.272Z,17.59
2022-11-15T00:27:27.726Z,17.61
2022-11-15T00:29:54.813Z,17.60
2022-11-15T00:32:21.847Z,17.61
2022-11-15T00:34:50.328Z,17.61
2022-11-15T00:37:17.325Z,17.62
2022-11-15T00:39:44.386Z,17.61
2022-11-15T00:42:11.433Z,17.62
2022-11-15T00:44:38.517Z,17.63
2022-11-15T00:47:05.628Z,17.68
2022-11-15T00:49:32.827Z,17.68
2022-11-15T00:52:01.453Z,17.67
2022-11-15T00:54:28.476Z,17.65
2022-11-15T00:56:55.476Z,17.62
2022-11-15T00:59:22.547Z,17.58
2022-11-15T01:01:49.605Z,17.58
2022-11-15T01:04:16.828Z,17.59
2022-11-15T01:06:44.092Z,17.60
2022-11-15T01:09:13.006Z,17.63
2022-11-15T01:11:40.149Z,17.66
2022-11-15T01:14:07.285Z,17.63
2022-11-15T01:16:34.756Z,17.62
2022-11-15T01:19:02.187Z,17.66
2022-11-15T01:21:29.486Z,17.67
2022-11-15T01:23:58.205Z,17.65
2022-11-15T01:26:27.768Z,17.64
2022-11-15T01:28:54.806Z,17.70
2022-11-15T01:31:22.565Z,17.70
2022-11-15T01:33:50.926Z,17.72
2022-11-15T01:36:21.385Z,17.72
2022-11-15T01:38:54.097Z,17.71
2022-11-15T01:41:24.060Z,17.70
2022-11-15T01:43:54.447Z,17.69
2022-11-15T01:46:30.806Z,17.70
2022-11-15T01:49:02.866Z,17.70
2022-11-15T01:51:34.386Z,17.64
2022-11-15T01:54:07.888Z,17.63
2022-11-15T01:56:42.425Z,17.62
2022-11-15T01:59:12.705Z,17.59
2022-11-15T02:01:40.267Z,17.60
2022-11-15T02:04:14.526Z,17.55
2022-11-15T02:06:44.190Z,17.50
2022-11-15T02:09:13.086Z,17.52
2022-11-15T02:11:40.685Z,17.55
2022-11-15T02:14:11.385Z,17.48
2022-11-15T02:16:50.185Z,17.53
2022-11-15T02:19:38.327Z,17.34
2022-11-15T02:22:23.366Z,17.26
2022-11-15T02:25:10.546Z,17.26
2022-11-15T02:28:11.716Z,16.90
2022-11-15T02:30:46.959Z,16.95
2022-11-15T02:33:30.911Z,17.00
2022-11-15T02:36:02.025Z,16.96
2022-11-15T02:38:39.990Z,17.04
2022-11-15T02:41:14.646Z,17.06
2022-11-15T02:43:51.086Z,16.98
2022-11-15T02:46:27.206Z,17.05
2022-11-15T02:48:54.306Z,16.85
2022-11-15T02:51:22.626Z,16.60
2022-11-15T02:53:49.667Z,16.90
2022-11-15T02:56:16.725Z,17.04
2022-11-15T02:59:15.427Z,17.09
2022-11-15T03:01:59.985Z,17.09
2022-11-15T03:04:41.596Z,17.06
2022-11-15T03:07:16.523Z,17.05
2022-11-15T03:09:53.346Z,17.05
2022-11-15T03:12:30.026Z,17.00
2022-11-15T03:15:02.546Z,16.96
2022-11-15T03:17:36.546Z,16.88
2022-11-15T03:20:09.006Z,16.90
2022-11-15T03:22:41.204Z,16.90
2022-11-15T03:25:14.987Z,16.90
2022-11-15T03:27:54.636Z,16.89
2022-11-15T03:30:22.145Z,16.86
2022-11-15T03:32:55.465Z,16.88
2022-11-15T03:35:25.404Z,16.79
2022-11-15T03:38:01.008Z,16.80
2022-11-15T03:40:35.566Z,16.69
2022-11-15T03:43:11.028Z,16.65
2022-11-15T03:45:45.850Z,16.59
2022-11-15T03:48:21.334Z,17.52
2022-11-15T03:50:50.115Z,17.83
2022-11-15T03:53:18.625Z,18.13
2022-11-15T03:55:46.067Z,18.32
2022-11-15T03:58:13.164Z,18.43
2022-11-15T04:00:40.226Z,18.43
2022-11-15T04:03:07.286Z,18.42
2022-11-15T04:05:35.879Z,18.44
2022-11-15T04:08:02.955Z,18.62
2022-11-15T04:10:30.065Z,18.65
2022-11-15T04:12:57.105Z,18.87
2022-11-15T04:15:25.485Z,19.01
2022-11-15T04:17:55.105Z,19.10
2022-11-15T04:20:24.426Z,19.18
2022-11-15T04:22:55.946Z,19.29
2022-11-15T04:25:24.699Z,19.25
2022-11-15T04:27:54.326Z,19.18
2022-11-15T04:30:21.406Z,19.07
2022-11-15T04:32:48.466Z,19.20
2022-11-15T04:35:15.846Z,19.15
2022-11-15T04:37:47.904Z,19.19
2022-11-15T04:40:18.186Z,19.12
2022-11-15T04:42:45.766Z,19.15
2022-11-15T04:45:12.931Z,19.14
2022-11-15T04:47:40.007Z,19.09
2022-11-15T04:50:08.087Z,19.09
2022-11-15T04:52:35.187Z,19.22
2022-11-15T04:55:07.781Z,19.20
2022-11-15T04:57:36.765Z,19.14
2022-11-15T05:00:05.625Z,19.08
2022-11-15T05:02:32.674Z,19.10
2022-11-15T05:04:59.747Z,19.07
2022-11-15T05:07:26.770Z,19.08
2022-11-15T05:09:53.826Z,19.06
2022-11-15T05:12:20.888Z,19.02
2022-11-15T05:14:49.365Z,19.00
2022-11-15T05:17:16.467Z,19.11
2022-11-15T05:19:43.509Z,19.04
2022-11-15T05:22:10.544Z,19.01
2022-11-15T05:24:37.625Z,18.95
2022-11-15T05:27:04.627Z,19.01
2022-11-15T05:29:31.687Z,18.89
2022-11-15T05:32:00.844Z,18.85
2022-11-15T05:34:28.365Z,18.85
2022-11-15T05:36:55.545Z,18.96
2022-11-15T05:39:22.724Z,19.00
2022-11-15T05:41:56.745Z,18.91
2022-11-15T05:44:25.032Z,19.00
2022-11-15T05:46:57.772Z,19.11
2022-11-15T05:49:31.444Z,19.13
2022-11-15T05:52:00.184Z,19.08
2022-11-15T05:54:27.664Z,19.07
2022-11-15T05:56:55.206Z,19.06
2022-11-15T05:59:22.705Z,19.06
2022-11-15T06:01:50.093Z,19.04
2022-11-15T06:04:17.305Z,19.00
2022-11-15T06:06:45.927Z,19.02
2022-11-15T06:09:13.105Z,19.03
2022-11-15T06:11:40.166Z,18.98
2022-11-15T06:14:07.246Z,18.98
2022-11-15T06:16:34.280Z,19.00
2022-11-15T06:19:02.011Z,18.98
2022-11-15T06:21:29.186Z,18.95
2022-11-15T06:23:57.767Z,18.86
2022-11-15T06:26:24.925Z,18.87
2022-11-15T06:28:52.028Z,18.88
2022-11-15T06:31:19.286Z,18.91
2022-11-15T06:33:47.665Z,18.77
2022-11-15T06:36:17.697Z,18.82
2022-11-15T06:38:46.177Z,18.85
2022-11-15T06:41:15.994Z,18.78
2022-11-15T06:43:43.065Z,18.82
2022-11-15T06:46:10.507Z,18.93
2022-11-15T06:48:37.587Z,19.00
2022-11-15T06:51:06.290Z,18.98
2022-11-15T06:53:34.473Z,18.91
2022-11-15T06:56:03.248Z,18.96
2022-11-15T06:58:32.530Z,18.87
2022-11-15T07:01:02.280Z,18.86
2022-11-15T07:03:30.627Z,18.83
2022-11-15T07:06:05.536Z,18.88
2022-11-15T07:08:35.489Z,18.83
2022-11-15T07:11:06.128Z,18.91
2022-11-15T07:13:37.246Z,18.93
2022-11-15T07:16:05.867Z,18.84
2022-11-15T07:18:35.647Z,18.86
2022-11-15T07:21:04.875Z,18.97
2022-11-15T07:23:32.400Z,18.95
2022-11-15T07:26:00.387Z,18.95
2022-11-15T07:28:28.388Z,18.91
2022-11-15T07:30:56.951Z,19.01
2022-11-15T07:33:24.155Z,18.97
2022-11-15T07:35:51.227Z,18.95
2022-11-15T07:38:19.090Z,18.83
2022-11-15T07:40:46.508Z,18.84
2022-11-15T07:43:14.267Z,18.86
2022-11-15T07:45:43.389Z,18.87
2022-11-15T07:48:12.511Z,18.88
2022-11-15T07:50:42.068Z,18.90
2022-11-15T07:53:10.791Z,18.91
2022-11-15T07:55:37.907Z,18.96
2022-11-15T07:58:07.113Z,18.98
2022-11-15T08:00:35.814Z,19.02
2022-11-15T08:03:04.426Z,18.98
2022-11-15T08:05:33.099Z,18.91
2022-11-15T08:08:00.667Z,18.96
2022-11-15T08:10:28.687Z,19.01
2022-11-15T08:13:00.659Z,19.13
2022-11-15T08:15:28.288Z,19.18
2022-11-15T08:17:56.328Z,19.22
2022-11-15T08:20:23.489Z,19.17
2022-11-15T08:22:52.987Z,19.20
2022-11-15T08:25:20.079Z,19.48
2022-11-15T08:27:47.488Z,19.90
2022-11-15T08:30:14.930Z,19.98
2022-11-15T08:32:42.009Z,20.35
2022-11-15T08:35:09.349Z,20.30
2022-11-15T08:37:36.428Z,20.12
2022-11-15T08:40:06.489Z,19.93
2022-11-15T08:42:33.670Z,19.75
2022-11-15T08:45:00.729Z,19.75
2022-11-15T08:47:27.790Z,19.57
2022-11-15T08:49:54.830Z,19.46
2022-11-15T08:52:22.488Z,19.29
2022-11-15T08:54:49.575Z,19.21
2022-11-15T08:57:18.468Z,19.12
2022-11-15T08:59:45.609Z,19.08
2022-11-15T09:02:14.870Z,19.05
2022-11-15T09:04:42.389Z,19.08
2022-11-15T09:07:10.902Z,19.04
2022-11-15T09:09:39.059Z,19.07
2022-11-15T09:12:08.166Z,19.08
2022-11-15T09:14:36.809Z,19.08
2022-11-15T09:17:04.058Z,19.11
2022-11-15T09:19:31.151Z,19.16
2022-11-15T09:21:58.208Z,19.14
2022-11-15T09:24:25.489Z,18.89
2022-11-15T09:26:53.048Z,18.81
2022-11-15T09:29:20.168Z,18.73
2022-11-15T09:31:48.789Z,18.65
2022-11-15T09:34:15.889Z,18.63
2022-11-15T09:36:43.008Z,18.59
2022-11-15T09:39:11.078Z,18.57
2022-11-15T09:42:02.486Z,18.49
2022-11-15T09:44:48.727Z,18.48
2022-11-15T09:47:56.948Z,18.43
2022-11-15T09:50:35.269Z,18.40
2022-11-15T09:53:03.188Z,18.38
2022-11-15T09:55:42.068Z,18.36
2022-11-15T09:58:25.625Z,18.33
2022-11-15T10:00:53.346Z,18.30
2022-11-15T10:03:28.449Z,18.24
2022-11-15T10:06:01.729Z,18.25
2022-11-15T10:08:50.995Z,18.20
2022-11-15T10:11:36.596Z,18.20
2022-11-15T10:14:13.448Z,18.17
2022-11-15T10:17:08.461Z,18.22
2022-11-15T10:19:48.788Z,18.28
2022-11-15T10:22:31.490Z,18.35
2022-11-15T10:25:18.247Z,18.41
2022-11-15T10:27:54.509Z,18.45
2022-11-15T10:30:22.711Z,18.49
2022-11-15T10:32:50.108Z,18.53
2022-11-15T10:35:22.340Z,18.56
2022-11-15T10:37:49.651Z,18.56
2022-11-15T10:40:20.567Z,18.61
2022-11-15T10:42:47.910Z,18.66
2022-11-15T10:45:28.452Z,18.64
2022-11-15T10:48:22.747Z,18.67
2022-11-15T10:50:53.733Z,18.67
2022-11-15T10:53:38.808Z,18.78
2022-11-15T10:56:12.771Z,18.72
2022-11-15T10:58:43.449Z,18.72
2022-11-15T11:01:15.120Z,18.72
2022-11-15T11:03:44.676Z,18.67
2022-11-15T11:06:15.230Z,18.66
2022-11-15T11:08:56.348Z,18.68
2022-11-15T11:11:23.690Z,18.70
2022-11-15T11:13:51.134Z,18.72
2022-11-15T11:16:42.268Z,18.76
2022-11-15T11:19:35.172Z,18.79
2022-11-15T11:22:15.028Z,18.80
2022-11-15T11:24:47.633Z,18.86
2022-11-15T11:27:30.148Z,18.84
2022-11-15T11:30:09.930Z,18.85
2022-11-15T11:33:02.427Z,18.85
2022-11-15T11:35:37.953Z,18.84
2022-11-15T11:38:31.308Z,18.81
2022-11-15T11:41:11.767Z,18.81
2022-11-15T11:43:53.651Z,18.77
2022-11-15T11:46:45.191Z,18.81
2022-11-15T11:49:20.107Z,18.77
2022-11-15T11:51:55.206Z,18.79
2022-11-15T11:54:32.569Z,18.81
2022-11-15T11:57:04.166Z,18.78
2022-11-15T11:59:42.568Z,18.81
2022-11-15T12:02:18.188Z,18.81
2022-11-15T12:04:51.367Z,18.83
2022-11-15T12:07:24.609Z,18.83
2022-11-15T12:10:00.605Z,18.84
2022-11-15T12:12:39.807Z,18.86
2022-11-15T12:15:16.968Z,18.84
2022-11-15T12:17:46.287Z,18.84
2022-11-15T12:20:19.747Z,18.90
2022-11-15T12:22:55.210Z,18.93
2022-11-15T12:25:30.647Z,18.90
2022-11-15T12:28:04.666Z,18.94
2022-11-15T12:30:57.356Z,18.97
2022-11-15T12:33:34.926Z,19.02
2022-11-15T12:36:04.566Z,19.05
2022-11-15T12:39:05.907Z,19.04
2022-11-15T12:41:36.867Z,19.06
2022-11-15T12:44:05.627Z,19.08
2022-11-15T12:47:01.509Z,19.14
2022-11-15T12:49:47.226Z,19.12
2022-11-15T12:52:15.206Z,19.16
2022-11-15T12:54:54.861Z,19.18
2022-11-15T12:57:40.964Z,19.25
2022-11-15T13:00:44.309Z,19.22
2022-11-15T13:03:28.907Z,19.16
2022-11-15T13:06:06.329Z,19.17
2022-11-15T13:08:45.968Z,19.17
2022-11-15T13:11:48.826Z,19.17
2022-11-15T13:14:49.689Z,19.17
2022-11-15T13:17:30.861Z,19.14
2022-11-15T13:20:20.589Z,19.14
2022-11-15T13:22:50.608Z,19.14
2022-11-15T13:25:24.789Z,19.18
2022-11-15T13:27:52.990Z,19.18
2022-11-15T13:30:24.889Z,19.17
2022-11-15T13:32:54.007Z,19.16
2022-11-15T13:35:24.871Z,19.20
2022-11-15T13:37:54.088Z,19.23
2022-11-15T13:40:25.809Z,19.22
2022-11-15T13:42:52.966Z,19.27
2022-11-15T13:45:22.507Z,19.27
2022-11-15T13:47:55.519Z,19.29
2022-11-15T13:50:27.547Z,19.31
2022-11-15T13:52:59.868Z,19.35
2022-11-15T13:55:28.611Z,19.33
2022-11-15T13:57:59.990Z,19.38
2022-11-15T14:00:35.592Z,19.41
2022-11-15T14:03:17.427Z,19.44
2022-11-15T14:05:44.949Z,19.43
2022-11-15T14:08:24.817Z,19.43
2022-11-15T14:11:08.982Z,19.47
2022-11-15T14:13:37.787Z,19.47
2022-11-15T14:16:18.627Z,19.47
2022-11-15T14:18:48.649Z,19.44
2022-11-15T14:21:16.831Z,19.39
2022-11-15T14:23:44.370Z,19.38
2022-11-15T14:26:30.310Z,19.32
2022-11-15T14:28:57.691Z,19.29
2022-11-15T14:31:26.372Z,19.28
2022-11-15T14:33:53.487Z,19.21
2022-11-15T14:36:22.149Z,19.23
2022-11-15T14:38:49.507Z,19.22
2022-11-15T14:41:22.533Z,19.25
2022-11-15T14:43:50.212Z,19.20
2022-11-15T14:46:18.007Z,19.20
2022-11-15T14:48:47.091Z,19.20
2022-11-15T14:51:16.429Z,19.21
2022-11-15T14:53:45.108Z,19.19
2022-11-15T14:56:14.311Z,19.17
2022-11-15T14:58:42.949Z,19.15
2022-11-15T15:01:14.920Z,19.14
2022-11-15T15:03:42.328Z,19.14
2022-11-15T15:06:16.529Z,19.13
2022-11-15T15:08:45.072Z,19.11
2022-11-15T15:11:18.008Z,19.11
2022-11-15T15:13:45.133Z,19.31
2022-11-15T15:16:12.351Z,21.15
2022-11-15T15:18:39.612Z,21.75
2022-11-15T15:21:22.073Z,22.27
2022-11-15T15:23:50.907Z,22.67
2022-11-15T15:26:18.347Z,22.99
2022-11-15T15:28:45.514Z,23.21
2022-11-15T15:31:12.669Z,23.25
2022-11-15T15:36:09.491Z,21.69
2022-11-15T15:38:38.090Z,21.19
2022-11-15T15:41:05.686Z,20.81
2022-11-15T15:43:32.909Z,20.46
2022-11-15T15:46:00.008Z,20.18
2022-11-15T15:48:27.129Z,19.96
2022-11-15T15:50:54.267Z,19.76
2022-11-15T15:53:21.786Z,19.61
2022-11-15T15:55:50.372Z,19.46
2022-11-15T15:58:17.555Z,19.35
2022-11-15T16:00:44.652Z,19.27
2022-11-15T16:03:11.777Z,19.19
2022-11-15T16:05:39.511Z,19.14
2022-11-15T16:08:06.728Z,19.08
2022-11-15T16:10:35.429Z,19.05
2022-11-15T16:13:04.089Z,19.01
2022-11-15T16:15:33.088Z,18.99
2022-11-15T16:18:02.656Z,18.96
2022-11-15T16:20:34.083Z,18.95
2022-11-15T16:23:07.557Z,18.95
2022-11-15T16:25:42.092Z,18.91
2022-11-15T16:28:22.037Z,18.88
2022-11-15T16:30:56.426Z,18.90
2022-11-15T16:33:24.528Z,18.87
2022-11-15T16:35:51.908Z,18.85
2022-11-15T16:38:19.387Z,18.81
2022-11-15T16:40:46.551Z,18.79
2022-11-15T16:43:13.608Z,18.78
2022-11-15T16:45:42.232Z,18.80
2022-11-15T16:48:22.974Z,18.79
2022-11-15T16:50:50.069Z,18.76
2022-11-15T16:53:17.208Z,18.77
2022-11-15T16:55:44.362Z,18.77
2022-11-15T16:58:11.490Z,18.76
2022-11-15T17:00:38.535Z,18.75
2022-11-15T17:03:07.078Z,18.76
2022-11-15T17:05:34.273Z,18.78
2022-11-15T17:08:01.372Z,18.77
2022-11-15T17:10:28.470Z,18.79
2022-11-15T17:12:56.377Z,18.75
2022-11-15T17:15:23.947Z,18.72
2022-11-15T17:17:52.971Z,18.68
2022-11-15T17:20:23.969Z,18.58
2022-11-15T17:22:51.788Z,18.64
2022-11-15T17:25:19.069Z,18.75
2022-11-15T17:27:46.289Z,18.74
2022-11-15T17:30:15.527Z,18.74
2022-11-15T17:32:43.471Z,18.68
2022-11-15T17:35:15.705Z,18.68
2022-11-15T17:37:44.753Z,18.66
2022-11-15T17:40:12.267Z,18.66
2022-11-15T17:42:41.327Z,18.61
2022-11-15T17:45:10.515Z,18.65
2022-11-15T17:47:38.248Z,18.68
2022-11-15T17:50:05.968Z,18.67
2022-11-15T17:52:33.027Z,18.68
2022-11-15T17:55:01.516Z,18.70
2022-11-15T17:57:28.610Z,18.68
2022-11-15T17:59:55.830Z,18.66
2022-11-15T18:02:23.239Z,18.61
2022-11-15T18:04:50.393Z,18.64
2022-11-15T18:07:17.725Z,18.66
2022-11-15T18:09:44.874Z,18.63
2022-11-15T18:12:13.409Z,18.63
2022-11-15T18:14:40.471Z,18.64
2022-11-15T18:17:07.607Z,18.64
2022-11-15T18:19:34.647Z,18.64
2022-11-15T18:22:01.947Z,18.68
2022-11-15T18:24:31.072Z,18.69
2022-11-15T18:26:59.976Z,18.66
2022-11-15T18:29:28.872Z,18.66
2022-11-15T18:31:56.218Z,18.65
2022-11-15T18:34:24.888Z,18.66
2022-11-15T18:36:53.427Z,18.64
2022-11-15T18:39:21.229Z,18.67
2022-11-15T18:41:48.888Z,18.61
2022-11-15T18:44:17.450Z,18.62
2022-11-15T18:46:46.109Z,18.65
2022-11-15T18:49:15.389Z,18.64
2022-11-15T18:51:43.728Z,18.65
2022-11-15T18:54:12.727Z,18.60
2022-11-15T18:56:40.491Z,18.63
2022-11-15T18:59:07.950Z,18.62
2022-11-15T19:01:37.111Z,18.62
2022-11-15T19:04:08.727Z,18.53
2022-11-15T19:06:39.048Z,18.51
2022-11-15T19:09:07.712Z,18.52
2022-11-15T19:11:37.128Z,18.51
2022-11-15T19:14:06.467Z,18.48
2022-11-15T19:16:37.249Z,18.46
2022-11-15T19:19:10.330Z,18.44
2022-11-15T19:21:37.507Z,18.48
2022-11-15T19:24:05.289Z,18.45
2022-11-15T19:26:32.488Z,18.38
2022-11-15T19:29:01.798Z,18.33
2022-11-15T19:31:30.708Z,18.33
2022-11-15T19:33:59.849Z,18.29
2022-11-15T19:36:30.547Z,18.33
2022-11-15T19:38:57.828Z,18.31
2022-11-15T19:41:25.669Z,18.30
2022-11-15T19:43:53.606Z,18.30
2022-11-15T19:46:22.487Z,18.30
2022-11-15T19:48:50.531Z,18.31
2022-11-15T19:51:19.836Z,18.31
2022-11-15T19:53:48.808Z,18.26
2022-11-15T19:56:18.707Z,18.24
2022-11-15T19:58:49.947Z,18.24
2022-11-15T20:01:18.784Z,18.17
2022-11-15T20:03:47.068Z,18.11
2022-11-15T20:06:16.628Z,18.07
2022-11-15T20:08:44.668Z,18.07
2022-11-15T20:11:13.888Z,17.96
2022-11-15T20:13:42.107Z,17.94
2022-11-15T20:16:14.712Z,17.89
2022-11-15T20:18:41.867Z,17.74
2022-11-15T20:21:09.888Z,17.78
2022-11-15T20:23:37.046Z,17.68
2022-11-15T20:26:04.611Z,17.72
2022-11-15T20:28:33.376Z,17.76
2022-11-15T20:31:01.986Z,17.80
2022-11-15T20:33:29.246Z,17.84
2022-11-15T20:35:56.286Z,17.86
2022-11-15T20:38:23.967Z,17.87
2022-11-15T20:40:56.041Z,17.91
2022-11-15T20:43:26.248Z,17.90
2022-11-15T20:45:55.308Z,17.90
2022-11-15T20:48:22.586Z,17.91
2022-11-15T20:50:49.769Z,17.92
2022-11-15T20:53:19.788Z,17.94
2022-11-15T20:55:48.706Z,17.94
2022-11-15T20:58:17.157Z,17.95
2022-11-15T21:00:45.124Z,17.96
2022-11-15T21:03:14.818Z,17.95
2022-11-15T21:05:44.433Z,17.95
2022-11-15T21:08:13.651Z,17.92
2022-11-15T21:10:41.268Z,17.92
2022-11-15T21:13:08.327Z,17.94
2022-11-15T21:15:35.348Z,17.92
2022-11-15T21:18:02.428Z,17.92
2022-11-15T21:20:31.007Z,17.92
2022-11-15T21:22:58.247Z,17.93
2022-11-15T21:25:25.388Z,17.94
2022-11-15T21:27:52.986Z,17.95
2022-11-15T21:30:20.330Z,17.94
2022-11-15T21:32:47.468Z,17.94
2022-11-15T21:35:14.528Z,17.93
2022-11-15T21:37:43.149Z,17.93
2022-11-15T21:40:11.586Z,17.87
2022-11-15T21:42:38.653Z,17.87
2022-11-15T21:45:07.389Z,17.86
2022-11-15T21:47:34.527Z,17.86
2022-11-15T21:50:01.632Z,17.87
2022-11-15T21:52:28.728Z,17.85
2022-11-15T21:54:57.233Z,17.82
2022-11-15T21:57:24.329Z,17.80
2022-11-15T21:59:51.369Z,17.80
2022-11-15T22:02:18.467Z,17.79
2022-11-15T22:04:45.870Z,17.75
2022-11-15T22:07:12.926Z,17.75
2022-11-15T22:09:40.452Z,17.76
2022-11-15T22:12:08.929Z,17.76
2022-11-15T22:14:36.048Z,17.77
2022-11-15T22:17:03.207Z,17.77
2022-11-15T22:19:30.314Z,17.69
2022-11-15T22:21:57.426Z,17.64
2022-11-15T22:24:24.553Z,17.64
2022-11-15T22:26:51.651Z,17.61
2022-11-15T22:29:20.148Z,18.76
2022-11-15T22:31:47.351Z,19.47
2022-11-15T22:34:14.529Z,19.88
2022-11-15T22:36:58.866Z,20.18
2022-11-15T22:39:28.948Z,20.48
2022-11-15T22:41:56.747Z,19.96
2022-11-15T22:44:25.256Z,19.53
2022-11-15T22:46:52.330Z,19.14
2022-11-15T22:49:19.388Z,18.81
2022-11-15T22:51:46.408Z,18.48
2022-11-15T22:54:13.507Z,18.28
2022-11-15T22:56:40.587Z,18.12
2022-11-15T22:59:07.687Z,18.02
2022-11-15T23:01:36.126Z,17.89
2022-11-15T23:04:03.320Z,17.82
2022-11-15T23:06:30.487Z,17.79
2022-11-15T23:08:57.567Z,17.76
2022-11-15T23:11:24.610Z,17.72
2022-11-15T23:13:52.728Z,17.69
2022-11-15T23:16:21.212Z,17.70
2022-11-15T23:18:51.287Z,17.73
2022-11-15T23:21:21.869Z,17.70
2022-11-15T23:23:48.949Z,17.69
2022-11-15T23:26:16.009Z,17.69
2022-11-15T23:28:43.168Z,17.71
2022-11-15T23:31:10.287Z,17.72
2022-11-15T23:33:37.306Z,17.74
2022-11-15T23:36:06.967Z,17.71
2022-11-15T23:38:35.392Z,17.73
2022-11-15T23:41:02.887Z,17.71
2022-11-15T23:43:30.430Z,17.72
2022-11-15T23:45:57.607Z,17.75
2022-11-15T23:48:24.701Z,17.75
2022-11-15T23:50:51.748Z,17.71
2022-11-15T23:53:20.786Z,17.74
2022-11-15T23:55:55.106Z,17.72
2022-11-15T23:58:22.287Z,17.68
